createdAt,value
2023-02-25T00:01:51.321Z,29.67
2023-02-25T00:04:23.276Z,29.97
2023-02-25T00:06:51.588Z,32.03
2023-02-25T00:09:20.046Z,34.90
2023-02-25T00:11:48.546Z,28.03
2023-02-25T00:14:18.319Z,33.57
2023-02-25T00:16:46.725Z,35.00
2023-02-25T00:19:15.234Z,28.17
2023-02-25T00:21:43.536Z,32.63
2023-02-25T00:24:16.751Z,37.73
2023-02-25T00:26:45.782Z,29.13
2023-02-25T00:29:14.134Z,30.30
2023-02-25T00:31:44.141Z,29.20
2023-02-25T00:34:12.489Z,26.43
2023-02-25T00:36:41.104Z,28.33
2023-02-25T00:39:10.855Z,27.57
2023-02-25T00:41:39.322Z,29.93
2023-02-25T00:44:08.350Z,32.57
2023-02-25T00:46:37.142Z,30.17
2023-02-25T00:49:07.110Z,39.10
2023-02-25T00:51:35.504Z,37.53
2023-02-25T00:54:03.762Z,31.43
2023-02-25T00:56:32.125Z,31.53
2023-02-25T00:59:01.498Z,34.43
2023-02-25T01:01:33.463Z,36.37
2023-02-25T01:04:02.514Z,31.20
2023-02-25T01:06:34.961Z,31.67
2023-02-25T01:09:05.397Z,32.17
2023-02-25T01:11:35.995Z,32.27
2023-02-25T01:14:06.673Z,32.20
2023-02-25T01:16:36.369Z,34.07
2023-02-25T01:19:06.921Z,33.00
2023-02-25T01:21:39.315Z,32.67
2023-02-25T01:24:11.503Z,37.27
2023-02-25T01:26:42.600Z,33.93
2023-02-25T01:29:11.789Z,30.63
2023-02-25T01:31:40.824Z,30.80
2023-02-25T01:34:11.733Z,29.97
2023-02-25T01:36:41.665Z,27.97
2023-02-25T01:39:10.490Z,31.80
2023-02-25T01:41:39.473Z,32.13
2023-02-25T01:44:11.815Z,31.70
2023-02-25T01:46:41.340Z,31.03
2023-02-25T01:49:13.534Z,30.60
2023-02-25T01:51:45.278Z,31.07
2023-02-25T01:54:15.410Z,29.43
2023-02-25T01:56:49.437Z,31.50
2023-02-25T01:59:19.753Z,30.67
2023-02-25T02:01:48.416Z,26.63
2023-02-25T02:04:19.665Z,28.73
2023-02-25T02:06:51.026Z,31.17
2023-02-25T02:09:22.377Z,33.03
2023-02-25T02:11:50.683Z,31.73
2023-02-25T02:14:24.639Z,34.23
2023-02-25T02:17:06.914Z,34.53
2023-02-25T02:20:20.579Z,29.77
2023-02-25T02:23:02.425Z,32.20
2023-02-25T02:25:53.068Z,30.83
2023-02-25T02:28:56.942Z,33.87
2023-02-25T02:31:52.600Z,27.37
2023-02-25T02:34:32.630Z,30.93
2023-02-25T02:37:08.908Z,34.50
2023-02-25T02:39:48.733Z,35.63
2023-02-25T02:42:23.597Z,34.07
2023-02-25T02:44:57.934Z,29.70
2023-02-25T02:47:31.672Z,36.13
2023-02-25T02:50:05.573Z,32.67
2023-02-25T02:52:39.096Z,33.57
2023-02-25T02:55:11.207Z,32.63
2023-02-25T02:57:41.486Z,30.37
2023-02-25T03:00:17.441Z,33.33
2023-02-25T03:02:51.700Z,32.80
2023-02-25T03:05:21.385Z,34.50
2023-02-25T03:07:56.736Z,30.93
2023-02-25T03:10:25.154Z,38.63
2023-02-25T03:12:53.674Z,31.23
2023-02-25T03:15:22.311Z,34.53
2023-02-25T03:17:56.473Z,42.10
2023-02-25T03:20:29.357Z,37.07
2023-02-25T03:23:02.575Z,33.40
2023-02-25T03:25:36.478Z,40.30
2023-02-25T03:28:14.074Z,30.30
2023-02-25T03:30:49.689Z,35.13
2023-02-25T03:33:25.907Z,33.07
2023-02-25T03:35:57.221Z,31.83
2023-02-25T03:38:30.107Z,31.67
2023-02-25T03:41:02.813Z,34.83
2023-02-25T03:43:34.606Z,30.80
2023-02-25T03:46:06.030Z,34.73
2023-02-25T03:48:37.942Z,36.90
2023-02-25T03:51:07.601Z,30.03
2023-02-25T03:53:36.891Z,31.73
2023-02-25T03:56:09.128Z,30.30
2023-02-25T03:58:39.364Z,38.53
2023-02-25T04:01:14.388Z,30.03
2023-02-25T04:03:45.827Z,32.47
2023-02-25T04:06:14.588Z,35.50
2023-02-25T04:08:43.097Z,34.17
2023-02-25T04:11:11.495Z,39.53
2023-02-25T04:13:39.903Z,36.23
2023-02-25T04:16:09.447Z,35.13
2023-02-25T04:18:38.236Z,38.57
2023-02-25T04:21:08.588Z,36.97
2023-02-25T04:23:37.757Z,36.77
2023-02-25T04:26:06.252Z,37.30
2023-02-25T04:28:34.569Z,38.63
2023-02-25T04:31:03.066Z,35.07
2023-02-25T04:33:32.519Z,40.57
2023-02-25T04:36:00.853Z,40.47
2023-02-25T04:38:30.950Z,41.53
2023-02-25T04:40:59.338Z,34.30
2023-02-25T04:43:27.670Z,36.50
2023-02-25T04:45:56.312Z,35.03
2023-02-25T04:48:24.678Z,35.17
2023-02-25T04:50:52.968Z,35.73
2023-02-25T04:53:21.522Z,38.00
2023-02-25T04:55:51.300Z,35.80
2023-02-25T04:58:19.548Z,35.57
2023-02-25T05:00:51.068Z,39.00
2023-02-25T05:03:19.405Z,33.50
2023-02-25T05:05:47.723Z,41.10
2023-02-25T05:08:16.061Z,38.73
2023-02-25T05:10:44.504Z,37.33
2023-02-25T05:13:14.266Z,32.63
2023-02-25T05:15:42.606Z,37.60
2023-02-25T05:18:10.981Z,35.27
2023-02-25T05:20:43.106Z,41.43
2023-02-25T05:23:11.892Z,43.97
2023-02-25T05:25:41.856Z,44.33
2023-02-25T05:28:10.514Z,53.80
2023-02-25T05:30:41.173Z,59.83
2023-02-25T05:33:10.016Z,53.53
2023-02-25T05:35:41.033Z,57.10
2023-02-25T05:38:09.518Z,57.47
2023-02-25T05:40:39.641Z,48.40
2023-02-25T05:43:09.169Z,53.67
2023-02-25T05:45:37.561Z,46.53
2023-02-25T05:48:07.733Z,55.23
2023-02-25T05:50:41.858Z,44.43
2023-02-25T05:53:10.946Z,46.00
2023-02-25T05:55:44.131Z,38.60
2023-02-25T05:58:12.645Z,43.03
2023-02-25T06:00:41.346Z,45.07
2023-02-25T06:03:11.764Z,37.73
2023-02-25T06:05:41.983Z,37.37
2023-02-25T06:08:13.225Z,43.37
2023-02-25T06:10:41.788Z,38.13
2023-02-25T06:13:11.673Z,36.97
2023-02-25T06:15:40.974Z,36.03
2023-02-25T06:18:10.982Z,35.43
2023-02-25T06:20:39.366Z,34.67
2023-02-25T06:23:07.908Z,40.53
2023-02-25T06:25:36.432Z,36.97
2023-02-25T06:28:05.527Z,40.40
2023-02-25T06:30:34.018Z,40.63
2023-02-25T06:33:02.392Z,43.43
2023-02-25T06:35:32.185Z,38.17
2023-02-25T06:38:01.719Z,41.17
2023-02-25T06:40:30.297Z,42.77
2023-02-25T06:42:58.669Z,40.47
2023-02-25T06:45:27.127Z,31.87
2023-02-25T06:47:55.455Z,35.63
2023-02-25T06:50:23.867Z,42.07
2023-02-25T06:52:53.691Z,31.90
2023-02-25T06:55:22.021Z,33.37
2023-02-25T06:57:50.413Z,36.57
2023-02-25T07:00:19.631Z,35.70
2023-02-25T07:02:48.117Z,35.60
2023-02-25T07:05:16.529Z,36.93
2023-02-25T07:07:44.876Z,37.13
2023-02-25T07:10:14.675Z,36.60
2023-02-25T07:12:43.122Z,36.40
2023-02-25T07:15:12.213Z,38.57
2023-02-25T07:17:40.596Z,36.73
2023-02-25T07:20:10.358Z,35.60
2023-02-25T07:22:38.621Z,34.60
2023-02-25T07:25:08.557Z,38.03
2023-02-25T07:27:44.517Z,37.83
2023-02-25T07:30:15.079Z,39.33
2023-02-25T07:32:44.628Z,39.33
2023-02-25T07:37:59.367Z,32.57
2023-02-25T07:40:27.750Z,30.17
2023-02-25T07:42:57.430Z,30.20
2023-02-25T07:45:25.865Z,34.17
2023-02-25T07:47:54.558Z,29.03
2023-02-25T07:50:22.893Z,33.07
2023-02-25T07:52:51.297Z,26.83
2023-02-25T07:55:19.781Z,26.60
2023-02-25T07:57:48.259Z,29.87
2023-02-25T08:00:18.936Z,28.33
2023-02-25T08:02:47.409Z,29.73
2023-02-25T08:05:15.835Z,27.60
2023-02-25T08:07:44.180Z,28.97
2023-02-25T08:10:13.247Z,29.23
2023-02-25T08:12:41.667Z,26.80
2023-02-25T08:15:10.485Z,25.23
2023-02-25T08:17:40.261Z,27.93
2023-02-25T08:20:10.076Z,34.27
2023-02-25T08:22:38.920Z,27.33
2023-02-25T08:25:07.811Z,25.40
2023-02-25T08:27:36.541Z,33.50
2023-02-25T08:30:07.008Z,27.60
2023-02-25T08:32:35.640Z,29.57
2023-02-25T08:35:06.114Z,27.43
2023-02-25T08:37:34.659Z,25.33
2023-02-25T08:40:09.654Z,30.87
2023-02-25T08:42:40.033Z,24.43
2023-02-25T08:45:09.053Z,25.90
2023-02-25T08:47:37.603Z,23.73
2023-02-25T08:50:08.405Z,26.97
2023-02-25T08:52:42.091Z,28.00
2023-02-25T08:55:14.948Z,26.67
2023-02-25T08:57:46.341Z,28.30
2023-02-25T09:00:16.309Z,28.50
2023-02-25T09:02:45.128Z,22.93
2023-02-25T09:05:15.034Z,27.00
2023-02-25T09:07:43.395Z,30.33
2023-02-25T09:10:14.089Z,28.27
2023-02-25T09:12:43.164Z,31.13
2023-02-25T09:15:12.755Z,29.67
2023-02-25T09:17:41.412Z,32.87
2023-02-25T09:20:11.950Z,33.10
2023-02-25T09:22:42.101Z,30.87
2023-02-25T09:25:10.593Z,35.67
2023-02-25T09:27:39.192Z,27.20
2023-02-25T09:30:08.869Z,35.27
2023-02-25T09:32:37.358Z,30.70
2023-02-25T09:35:06.733Z,29.10
2023-02-25T09:37:35.482Z,37.60
2023-02-25T09:40:09.656Z,29.90
2023-02-25T09:42:51.814Z,34.27
2023-02-25T09:45:23.193Z,32.33
2023-02-25T09:47:56.539Z,30.73
2023-02-25T09:50:36.047Z,31.67
2023-02-25T09:53:11.456Z,37.40
2023-02-25T09:55:45.426Z,26.20
2023-02-25T09:58:21.132Z,30.70
2023-02-25T10:01:07.184Z,30.63
2023-02-25T10:03:51.879Z,30.00
2023-02-25T10:06:26.545Z,35.50
2023-02-25T10:09:02.930Z,28.93
2023-02-25T10:11:43.079Z,32.00
2023-02-25T10:14:26.326Z,28.10
2023-02-25T10:17:05.758Z,27.73
2023-02-25T10:19:45.781Z,29.27
2023-02-25T10:22:28.167Z,27.97
2023-02-25T10:25:00.196Z,32.57
2023-02-25T10:27:33.174Z,29.67
2023-02-25T10:30:06.676Z,27.90
2023-02-25T10:32:37.397Z,29.13
2023-02-25T10:35:23.047Z,33.20
2023-02-25T10:37:51.509Z,26.10
2023-02-25T10:40:22.267Z,29.37
2023-02-25T10:42:54.444Z,29.67
2023-02-25T10:45:27.264Z,27.30
2023-02-25T10:48:03.384Z,33.70
2023-02-25T10:50:44.963Z,35.87
2023-02-25T10:53:16.496Z,30.67
2023-02-25T10:55:52.875Z,31.67
2023-02-25T10:58:29.029Z,35.20
2023-02-25T11:01:00.728Z,29.57
2023-02-25T11:03:32.107Z,33.47
2023-02-25T11:06:25.601Z,42.07
2023-02-25T11:08:56.498Z,29.70
2023-02-25T11:11:26.887Z,34.33
2023-02-25T11:14:02.235Z,38.00
2023-02-25T11:16:32.065Z,33.60
2023-02-25T11:19:02.578Z,38.40
2023-02-25T11:21:35.091Z,36.97
2023-02-25T11:24:10.088Z,36.70
2023-02-25T11:26:39.398Z,36.67
2023-02-25T11:29:14.290Z,33.03
2023-02-25T11:31:44.305Z,31.70
2023-02-25T11:34:21.811Z,42.53
2023-02-25T11:36:51.291Z,34.07
2023-02-25T11:39:22.511Z,36.60
2023-02-25T11:41:52.145Z,34.90
2023-02-25T11:44:28.448Z,37.27
2023-02-25T11:47:04.500Z,37.53
2023-02-25T11:49:54.824Z,39.73
2023-02-25T11:52:28.593Z,36.67
2023-02-25T11:55:10.870Z,38.50
2023-02-25T11:57:47.807Z,38.23
2023-02-25T12:00:27.618Z,35.03
2023-02-25T12:03:29.268Z,40.37
2023-02-25T12:06:10.348Z,32.83
2023-02-25T12:08:46.455Z,36.60
2023-02-25T12:11:56.530Z,32.07
2023-02-25T12:15:00.311Z,33.30
2023-02-25T12:17:59.563Z,38.07
2023-02-25T12:20:55.332Z,39.60
2023-02-25T12:24:17.485Z,30.43
2023-02-25T12:27:07.938Z,34.00
2023-02-25T12:30:03.326Z,30.13
2023-02-25T12:32:54.446Z,33.37
2023-02-25T12:35:50.025Z,34.30
2023-02-25T12:38:59.899Z,35.27
2023-02-25T12:41:40.419Z,34.10
2023-02-25T12:44:41.805Z,40.80
2023-02-25T12:47:21.544Z,92.00
2023-02-25T12:50:40.683Z,34.67
2023-02-25T12:53:25.482Z,35.00
2023-02-25T12:56:32.202Z,74.33
2023-02-25T12:59:29.436Z,81.33
2023-02-25T13:02:18.590Z,63.53
2023-02-25T13:05:19.926Z,53.00
2023-02-25T13:08:17.475Z,37.40
2023-02-25T13:10:58.065Z,45.07
2023-02-25T13:14:12.410Z,39.73
2023-02-25T13:16:58.501Z,37.90
2023-02-25T13:19:47.738Z,38.43
2023-02-25T13:22:33.645Z,39.07
2023-02-25T13:25:14.089Z,34.67
2023-02-25T13:28:19.206Z,33.33
2023-02-25T13:30:58.130Z,31.07
2023-02-25T13:33:46.202Z,29.50
2023-02-25T13:36:33.745Z,28.57
2023-02-25T13:39:20.976Z,26.37
2023-02-25T13:42:11.225Z,27.87
2023-02-25T13:44:56.271Z,24.40
2023-02-25T13:47:41.162Z,58.37
2023-02-25T13:50:38.875Z,26.43
2023-02-25T13:53:52.158Z,24.43
2023-02-25T13:57:00.318Z,32.27
2023-02-25T14:00:02.638Z,33.87
2023-02-25T14:03:07.278Z,33.23
2023-02-25T14:06:13.653Z,32.50
2023-02-25T14:09:33.039Z,35.90
2023-02-25T14:12:13.261Z,37.53
2023-02-25T14:15:18.103Z,36.70
2023-02-25T14:18:12.300Z,81.53
2023-02-25T14:20:51.255Z,77.67
2023-02-25T14:23:31.425Z,49.93
2023-02-25T14:26:24.260Z,48.10
2023-02-25T14:29:07.591Z,68.63
2023-02-25T14:31:48.471Z,36.93
2023-02-25T14:34:47.156Z,34.40
2023-02-25T14:37:23.764Z,29.40
2023-02-25T14:40:13.985Z,32.87
2023-02-25T14:43:17.424Z,34.13
2023-02-25T14:45:52.221Z,53.03
2023-02-25T14:48:27.031Z,58.97
2023-02-25T14:51:08.954Z,68.90
2023-02-25T14:53:59.315Z,31.40
2023-02-25T14:56:51.459Z,37.97
2023-02-25T14:59:50.016Z,36.07
2023-02-25T15:02:46.854Z,32.60
2023-02-25T15:05:33.569Z,54.53
2023-02-25T15:08:26.727Z,39.60
2023-02-25T15:11:22.389Z,33.20
2023-02-25T15:14:24.817Z,34.53
2023-02-25T15:17:10.294Z,31.10
2023-02-25T15:20:30.305Z,35.80
2023-02-25T15:23:13.426Z,35.77
2023-02-25T15:25:48.285Z,38.33
2023-02-25T15:29:00.132Z,41.70
2023-02-25T15:31:54.246Z,37.57
2023-02-25T15:34:55.087Z,40.17
2023-02-25T15:37:34.053Z,41.37
2023-02-25T15:40:38.869Z,44.40
2023-02-25T15:43:40.313Z,36.57
2023-02-25T15:46:38.745Z,33.30
2023-02-25T15:49:20.058Z,41.03
2023-02-25T15:51:51.473Z,38.17
2023-02-25T15:54:49.808Z,33.87
2023-02-25T15:57:38.040Z,37.90
2023-02-25T16:00:46.293Z,43.77
2023-02-25T16:03:47.852Z,51.03
2023-02-25T16:06:19.226Z,48.00
2023-02-25T16:08:53.960Z,44.20
2023-02-25T16:11:34.678Z,47.47
2023-02-25T16:14:07.514Z,42.40
2023-02-25T16:16:39.828Z,41.73
2023-02-25T16:19:08.995Z,46.03
2023-02-25T16:21:42.022Z,37.90
2023-02-25T16:24:20.264Z,40.60
2023-02-25T16:26:59.913Z,42.93
2023-02-25T16:29:43.750Z,49.27
2023-02-25T16:32:24.531Z,48.27
2023-02-25T16:35:02.540Z,70.13
2023-02-25T16:37:40.718Z,54.37
2023-02-25T16:40:20.550Z,64.97
2023-02-25T16:43:12.491Z,59.97
2023-02-25T16:45:46.915Z,71.67
2023-02-25T16:48:19.558Z,57.47
2023-02-25T16:50:54.242Z,62.43
2023-02-25T16:53:26.242Z,57.97
2023-02-25T16:56:00.305Z,59.30
2023-02-25T16:58:31.851Z,52.90
2023-02-25T17:01:04.028Z,57.20
2023-02-25T17:03:46.459Z,59.03
2023-02-25T17:06:19.135Z,52.17
2023-02-25T17:08:49.073Z,44.63
2023-02-25T17:11:19.334Z,44.50
2023-02-25T17:13:49.702Z,46.70
2023-02-25T17:16:23.304Z,39.87
2023-02-25T17:18:55.371Z,42.53
2023-02-25T17:21:29.584Z,50.33
2023-02-25T17:24:00.345Z,43.70
2023-02-25T17:26:29.479Z,48.27
2023-02-25T17:29:03.808Z,49.50
2023-02-25T17:31:32.517Z,45.67
2023-02-25T17:34:03.637Z,57.10
2023-02-25T17:36:35.476Z,48.47
2023-02-25T17:39:06.164Z,44.53
2023-02-25T17:41:42.981Z,50.73
2023-02-25T17:44:14.206Z,52.80
2023-02-25T17:46:44.721Z,54.67
2023-02-25T17:49:22.660Z,57.47
2023-02-25T17:51:55.776Z,44.03
2023-02-25T17:54:26.638Z,52.53
2023-02-25T17:57:00.390Z,46.70
2023-02-25T17:59:39.700Z,51.67
2023-02-25T18:02:34.441Z,47.97
2023-02-25T18:05:25.734Z,49.43
2023-02-25T18:08:19.531Z,45.23
2023-02-25T18:10:56.237Z,48.17
2023-02-25T18:13:31.194Z,49.07
2023-02-25T18:16:41.511Z,47.57
2023-02-25T18:19:19.940Z,53.47
2023-02-25T18:21:48.224Z,51.37
2023-02-25T18:24:25.397Z,45.73
2023-02-25T18:27:03.055Z,44.50
2023-02-25T18:29:32.242Z,48.00
2023-02-25T18:32:02.227Z,49.47
2023-02-25T18:35:02.704Z,45.73
2023-02-25T18:37:34.451Z,47.73
2023-02-25T18:40:03.355Z,44.97
2023-02-25T18:42:31.835Z,46.33
2023-02-25T18:45:00.434Z,48.57
2023-02-25T18:48:41.488Z,48.47
2023-02-25T18:51:15.100Z,45.87
2023-02-25T18:53:44.321Z,47.90
2023-02-25T18:56:16.647Z,51.63
2023-02-25T18:58:45.682Z,43.07
2023-02-25T19:01:23.568Z,47.60
2023-02-25T19:03:53.900Z,44.57
2023-02-25T19:06:23.943Z,49.70
2023-02-25T19:08:52.447Z,50.80
2023-02-25T19:11:23.876Z,46.63
2023-02-25T19:13:53.140Z,44.00
2023-02-25T19:16:23.578Z,48.33
2023-02-25T19:18:52.571Z,48.77
2023-02-25T19:21:23.292Z,41.57
2023-02-25T19:23:53.969Z,50.57
2023-02-25T19:26:23.456Z,48.67
2023-02-25T19:28:52.204Z,45.60
2023-02-25T19:31:20.717Z,49.77
2023-02-25T19:33:49.310Z,47.23
2023-02-25T19:36:19.587Z,41.43
2023-02-25T19:38:49.464Z,45.57
2023-02-25T19:41:17.763Z,48.90
2023-02-25T19:43:46.729Z,50.70
2023-02-25T19:46:17.393Z,47.50
2023-02-25T19:48:45.932Z,47.83
2023-02-25T19:51:15.557Z,50.03
2023-02-25T19:53:45.602Z,46.33
2023-02-25T19:56:15.392Z,49.83
2023-02-25T19:58:43.770Z,51.40
2023-02-25T20:01:12.241Z,51.60
2023-02-25T20:03:40.681Z,49.63
2023-02-25T20:06:13.406Z,48.03
2023-02-25T20:08:41.950Z,52.80
2023-02-25T20:11:10.919Z,51.90
2023-02-25T20:13:40.815Z,46.37
2023-02-25T20:16:10.250Z,48.10
2023-02-25T20:18:38.657Z,49.10
2023-02-25T20:21:07.633Z,47.63
2023-02-25T20:23:37.365Z,50.47
2023-02-25T20:26:09.566Z,47.30
2023-02-25T20:28:38.316Z,52.57
2023-02-25T20:31:11.554Z,48.23
2023-02-25T20:33:40.825Z,46.93
2023-02-25T20:36:20.437Z,57.13
2023-02-25T20:39:04.353Z,48.53
2023-02-25T20:41:33.508Z,61.33
2023-02-25T20:44:02.079Z,52.30
2023-02-25T20:46:31.943Z,53.80
2023-02-25T20:49:00.849Z,58.63
2023-02-25T20:51:29.689Z,50.10
2023-02-25T20:53:58.261Z,47.77
2023-02-25T20:56:30.505Z,57.50
2023-02-25T20:58:59.283Z,60.27
2023-02-25T21:01:27.731Z,56.37
2023-02-25T21:03:57.558Z,52.03
2023-02-25T21:06:27.520Z,54.20
2023-02-25T21:08:56.499Z,53.30
2023-02-25T21:11:25.676Z,46.30
2023-02-25T21:13:54.895Z,44.53
2023-02-25T21:16:24.884Z,44.60
2023-02-25T21:18:53.617Z,47.23
2023-02-25T21:21:23.461Z,46.97
2023-02-25T21:23:52.798Z,37.23
2023-02-25T21:26:21.330Z,47.73
2023-02-25T21:28:49.695Z,46.83
2023-02-25T21:31:18.458Z,42.47
2023-02-25T21:33:47.194Z,38.60
2023-02-25T21:36:15.512Z,45.67
2023-02-25T21:38:45.302Z,48.07
2023-02-25T21:41:15.998Z,45.97
2023-02-25T21:43:45.196Z,47.30
2023-02-25T21:46:16.285Z,40.30
2023-02-25T21:48:46.838Z,41.97
2023-02-25T21:51:17.319Z,44.83
2023-02-25T21:53:47.397Z,45.40
2023-02-25T21:56:18.015Z,38.93
2023-02-25T21:58:46.778Z,43.50
2023-02-25T22:01:16.615Z,51.23
2023-02-25T22:03:46.398Z,46.83
2023-02-25T22:06:15.933Z,51.00
2023-02-25T22:08:46.767Z,48.37
2023-02-25T22:11:16.553Z,45.87
2023-02-25T22:13:45.043Z,55.87
2023-02-25T22:16:16.395Z,50.27
2023-02-25T22:18:45.091Z,48.90
2023-02-25T22:21:16.022Z,53.40
2023-02-25T22:23:48.383Z,49.53
2023-02-25T22:26:18.441Z,49.13
2023-02-25T22:28:47.898Z,53.07
2023-02-25T22:31:18.795Z,45.33
2023-02-25T22:33:47.263Z,53.97
2023-02-25T22:36:18.235Z,46.37
2023-02-25T22:38:49.556Z,47.47
2023-02-25T22:41:19.916Z,42.00
2023-02-25T22:43:49.075Z,47.00
2023-02-25T22:46:19.732Z,42.33
2023-02-25T22:48:49.676Z,41.83
2023-02-25T22:51:21.328Z,48.70
2023-02-25T22:53:51.411Z,40.83
2023-02-25T22:56:19.730Z,45.17
2023-02-25T22:58:48.112Z,43.47
2023-02-25T23:01:19.426Z,44.30
2023-02-25T23:03:48.500Z,38.57
2023-02-25T23:06:19.524Z,39.43
2023-02-25T23:08:48.050Z,45.90
2023-02-25T23:11:20.933Z,45.90
2023-02-25T23:13:52.586Z,43.17
2023-02-25T23:16:23.254Z,38.77
2023-02-25T23:18:52.618Z,41.67
2023-02-25T23:21:21.653Z,45.87
2023-02-25T23:23:51.704Z,41.60
2023-02-25T23:26:24.111Z,41.37
2023-02-25T23:28:56.623Z,41.07
2023-02-25T23:31:26.361Z,46.67
2023-02-25T23:33:57.458Z,36.93
2023-02-25T23:36:27.063Z,39.20
2023-02-25T23:38:55.802Z,45.03
2023-02-25T23:41:26.260Z,41.57
2023-02-25T23:43:55.928Z,42.53
2023-02-25T23:46:26.083Z,41.97
2023-02-25T23:48:56.472Z,41.00
2023-02-25T23:51:25.260Z,42.67
2023-02-25T23:53:54.490Z,37.27
2023-02-25T23:56:24.670Z,36.40
2023-02-25T23:58:54.184Z,35.70
